Time;durP1;ratioP1;P1;durP2;ratioP2;P2;SDS_P1;SDS_P2;PMS_P1;PMS_P2;Temp;Humidity;BMP_temperature;BMP_pressure;BME280_temperature;BME280_humidity;BME280_pressure;Samples;Min_cycle;Max_cycle;Signal;HPM_P1;HPM_P2
2022/11/20 00:02:13;;;;;;;1.92;1.10;;;;;;;;;;5052632;28;20033;-57
2022/11/20 00:04:39;;;;;;;2.30;1.05;;;;;;;;;;5052208;28;20485;-57
2022/11/20 00:07:05;;;;;;;1.75;1.05;;;;;;;;;;5051867;28;20069;-56
2022/11/20 00:09:31;;;;;;;1.75;1.13;;;;;;;;;;5052337;28;20060;-57
2022/11/20 00:11:57;;;;;;;1.15;1.00;;;;;;;;;;5052245;28;20037;-56
2022/11/20 00:14:23;;;;;;;1.80;1.38;;;;;;;;;;5051646;28;20040;-57
2022/11/20 00:16:49;;;;;;;1.90;1.10;;;;;;;;;;5052001;28;20420;-57
2022/11/20 00:19:15;;;;;;;1.50;1.40;;;;;;;;;;5052464;28;20037;-56
2022/11/20 00:21:41;;;;;;;1.17;1.05;;;;;;;;;;5051931;28;20024;-57
2022/11/20 00:24:10;;;;;;;2.65;1.50;;;;;;;;;;5052065;28;20484;-57
2022/11/20 00:26:36;;;;;;;1.30;1.10;;;;;;;;;;5051960;28;20029;-56
2022/11/20 00:29:02;;;;;;;2.00;1.20;;;;;;;;;;5067835;28;20121;-57
2022/11/20 00:31:29;;;;;;;1.67;1.02;;;;;;;;;;5071616;28;20063;-56
2022/11/20 00:33:55;;;;;;;1.38;1.08;;;;;;;;;;5071563;28;20041;-57
2022/11/20 00:36:23;;;;;;;2.40;1.20;;;;;;;;;;5071684;28;20056;-57
2022/11/20 00:38:56;;;;;;;2.65;1.30;;;;;;;;;;5071553;28;20579;-57
2022/11/20 00:41:22;;;;;;;1.30;1.10;;;;;;;;;;5068029;28;20037;-57
2022/11/20 00:43:48;;;;;;;1.67;1.15;;;;;;;;;;5051370;28;20049;-56
2022/11/20 00:46:18;;;;;;;1.88;1.00;;;;;;;;;;5051472;28;20044;-56
2022/11/20 00:48:45;;;;;;;1.40;1.20;;;;;;;;;;5051760;28;20045;-56
2022/11/20 00:51:12;;;;;;;1.70;1.30;;;;;;;;;;5051523;28;20033;-56
2022/11/20 00:53:38;;;;;;;2.22;1.25;;;;;;;;;;5051213;28;20068;-57
2022/11/20 00:56:05;;;;;;;2.95;1.63;;;;;;;;;;5062089;28;20075;-57
2022/11/20 00:58:32;;;;;;;3.72;1.83;;;;;;;;;;5071252;28;20035;-57
2022/11/20 01:01:01;;;;;;;2.72;1.77;;;;;;;;;;5071465;28;20510;-57
2022/11/20 01:03:28;;;;;;;3.47;1.65;;;;;;;;;;5070787;28;20036;-56
2022/11/20 01:05:54;;;;;;;3.97;1.70;;;;;;;;;;5070429;28;20037;-57
2022/11/20 01:08:20;;;;;;;1.65;1.30;;;;;;;;;;5070688;28;20488;-57
2022/11/20 01:10:46;;;;;;;2.08;1.40;;;;;;;;;;5068100;28;20032;-56
2022/11/20 01:16:02;;;;;;;1.60;1.20;;;;;;;;;;5050167;28;20040;-56
2022/11/20 01:18:28;;;;;;;2.28;1.42;;;;;;;;;;5050262;28;20029;-57
2022/11/20 01:20:54;;;;;;;1.48;1.33;;;;;;;;;;5050182;28;20044;-56
2022/11/20 01:23:20;;;;;;;2.10;1.38;;;;;;;;;;5050128;28;20033;-56
2022/11/20 01:25:46;;;;;;;1.33;1.23;;;;;;;;;;5050194;28;20474;-57
2022/11/20 01:28:12;;;;;;;1.95;1.30;;;;;;;;;;5049803;28;20049;-57
2022/11/20 01:30:38;;;;;;;1.88;1.30;;;;;;;;;;5050106;28;20087;-56
2022/11/20 01:33:04;;;;;;;2.67;1.48;;;;;;;;;;5050127;28;20040;-56
2022/11/20 01:35:30;;;;;;;2.50;1.63;;;;;;;;;;5049984;28;20048;-57
2022/11/20 01:37:56;;;;;;;2.85;1.70;;;;;;;;;;5061286;28;20033;-56
2022/11/20 01:40:22;;;;;;;3.00;1.80;;;;;;;;;;5070336;28;20032;-56
2022/11/20 01:45:52;;;;;;;2.05;1.67;;;;;;;;;;5070093;28;20047;-57
2022/11/20 01:48:19;;;;;;;2.05;1.42;;;;;;;;;;5070037;28;20117;-56
2022/11/20 01:50:45;;;;;;;1.80;1.60;;;;;;;;;;5071476;28;20041;-57
2022/11/20 01:53:14;;;;;;;2.80;1.52;;;;;;;;;;5053559;28;20033;-56
2022/11/20 01:55:42;;;;;;;2.08;1.30;;;;;;;;;;5053830;28;20570;-57
2022/11/20 01:58:09;;;;;;;3.40;1.20;;;;;;;;;;5053815;28;20033;-57
2022/11/20 02:00:35;;;;;;;1.70;1.15;;;;;;;;;;5053857;28;20500;-56
2022/11/20 02:03:04;;;;;;;1.88;1.30;;;;;;;;;;5053141;28;20029;-57
2022/11/20 02:05:39;;;;;;;1.55;1.20;;;;;;;;;;5053694;28;20094;-57
2022/11/20 02:08:06;;;;;;;1.88;1.45;;;;;;;;;;5053704;28;20033;-57
2022/11/20 02:10:32;;;;;;;1.65;1.20;;;;;;;;;;5053670;28;20091;-56
2022/11/20 02:15:43;;;;;;;2.38;1.60;;;;;;;;;;5073461;28;20673;-56
2022/11/20 02:18:10;;;;;;;2.05;1.60;;;;;;;;;;5073485;28;20116;-57
2022/11/20 02:20:36;;;;;;;2.42;1.48;;;;;;;;;;5064575;28;20033;-57
2022/11/20 02:23:09;;;;;;;1.40;1.30;;;;;;;;;;5053069;28;20029;-57
2022/11/20 02:25:36;;;;;;;2.50;1.60;;;;;;;;;;5053384;28;20066;-57
2022/11/20 02:28:02;;;;;;;2.67;1.33;;;;;;;;;;5053244;28;20039;-57
2022/11/20 02:30:28;;;;;;;2.00;1.75;;;;;;;;;;5053203;28;20489;-57
2022/11/20 02:32:54;;;;;;;3.50;1.65;;;;;;;;;;5053574;28;20033;-57
2022/11/20 02:35:20;;;;;;;2.70;1.50;;;;;;;;;;5053172;28;20048;-57
2022/11/20 02:37:48;;;;;;;2.05;1.50;;;;;;;;;;5053105;28;20032;-57
2022/11/20 02:40:15;;;;;;;2.15;1.40;;;;;;;;;;5053054;28;20112;-57
2022/11/20 02:42:41;;;;;;;1.80;1.50;;;;;;;;;;5064803;28;20115;-56
2022/11/20 02:45:07;;;;;;;2.22;1.35;;;;;;;;;;5070741;28;20041;-57
2022/11/20 02:47:33;;;;;;;2.30;1.65;;;;;;;;;;5069830;28;20052;-57
2022/11/20 02:49:59;;;;;;;2.08;1.50;;;;;;;;;;5071183;28;20029;-57
2022/11/20 02:52:26;;;;;;;1.80;1.27;;;;;;;;;;5070342;28;20099;-58
2022/11/20 02:54:52;;;;;;;2.03;1.65;;;;;;;;;;5071028;28;20037;-56
2022/11/20 02:57:18;;;;;;;3.05;1.70;;;;;;;;;;5071063;28;20074;-58
2022/11/20 02:59:44;;;;;;;2.30;1.60;;;;;;;;;;5071846;28;20036;-57
2022/11/20 03:02:10;;;;;;;2.65;1.63;;;;;;;;;;5069762;28;20419;-56
2022/11/20 03:04:36;;;;;;;1.80;1.50;;;;;;;;;;5070823;28;20040;-55
2022/11/20 03:07:02;;;;;;;2.03;1.23;;;;;;;;;;5070969;28;20036;-56
2022/11/20 03:09:28;;;;;;;3.63;1.75;;;;;;;;;;5070847;28;20495;-56
2022/11/20 03:11:54;;;;;;;3.00;1.50;;;;;;;;;;5068480;28;20052;-56
2022/11/20 03:14:20;;;;;;;1.60;1.50;;;;;;;;;;5050438;28;20037;-55
2022/11/20 03:16:46;;;;;;;2.50;1.40;;;;;;;;;;5051323;28;20503;-55
2022/11/20 03:19:12;;;;;;;1.98;1.30;;;;;;;;;;5050910;28;20036;-55
2022/11/20 03:21:38;;;;;;;2.42;1.73;;;;;;;;;;5050592;28;20029;-54
2022/11/20 03:24:04;;;;;;;3.35;1.42;;;;;;;;;;5050220;28;20029;-54
2022/11/20 03:26:30;;;;;;;2.13;1.60;;;;;;;;;;5050465;28;20045;-54
2022/11/20 03:28:57;;;;;;;2.00;1.40;;;;;;;;;;5050499;28;20033;-55
2022/11/20 03:31:27;;;;;;;3.05;1.85;;;;;;;;;;5050447;28;20041;-55
2022/11/20 03:33:54;;;;;;;2.72;1.63;;;;;;;;;;5066405;28;20051;-55
2022/11/20 03:36:20;;;;;;;3.08;1.85;;;;;;;;;;5070981;28;20090;-55
2022/11/20 03:38:47;;;;;;;2.65;1.70;;;;;;;;;;5070837;28;20078;-55
2022/11/20 03:41:14;;;;;;;1.90;1.38;;;;;;;;;;5070250;28;20033;-55
2022/11/20 03:43:40;;;;;;;3.08;2.10;;;;;;;;;;5069028;28;20568;-56
2022/11/20 03:46:07;;;;;;;2.72;2.10;;;;;;;;;;5070189;28;20555;-55
2022/11/20 03:48:33;;;;;;;2.80;2.15;;;;;;;;;;5070128;28;20028;-55
2022/11/20 03:51:09;;;;;;;3.35;2.45;;;;;;;;;;5070099;28;20052;-55
2022/11/20 03:53:35;;;;;;;3.35;2.20;;;;;;;;;;5055700;28;20029;-56
2022/11/20 03:56:01;;;;;;;3.60;2.03;;;;;;;;;;5050098;28;20120;-56
2022/11/20 03:58:27;;;;;;;3.35;2.30;;;;;;;;;;5050263;28;20090;-55
2022/11/20 04:00:53;;;;;;;2.70;2.35;;;;;;;;;;5057023;28;20570;-56
2022/11/20 04:03:19;;;;;;;2.97;1.95;;;;;;;;;;5060979;28;20029;-56
2022/11/20 04:05:45;;;;;;;3.97;2.95;;;;;;;;;;5050538;28;20038;-56
2022/11/20 04:08:11;;;;;;;4.28;2.88;;;;;;;;;;5050433;28;20044;-55
2022/11/20 04:10:37;;;;;;;4.72;2.92;;;;;;;;;;5050293;28;20045;-56
2022/11/20 04:13:03;;;;;;;2.60;2.40;;;;;;;;;;5031871;28;20474;-56
2022/11/20 04:15:30;;;;;;;2.53;2.33;;;;;;;;;;5050369;28;20538;-55
2022/11/20 04:17:56;;;;;;;2.72;2.03;;;;;;;;;;5050419;28;20029;-56
2022/11/20 04:20:22;;;;;;;3.55;2.75;;;;;;;;;;5050885;28;20041;-55
2022/11/20 04:22:48;;;;;;;3.13;2.20;;;;;;;;;;5064188;28;20508;-56
2022/11/20 04:25:14;;;;;;;3.88;2.67;;;;;;;;;;5069852;28;20040;-56
2022/11/20 04:27:40;;;;;;;3.35;2.08;;;;;;;;;;5068960;28;20043;-56
2022/11/20 04:30:06;;;;;;;3.25;2.00;;;;;;;;;;5070195;28;20064;-56
2022/11/20 04:32:32;;;;;;;2.28;1.73;;;;;;;;;;5069094;28;20079;-56
2022/11/20 04:34:58;;;;;;;2.35;1.80;;;;;;;;;;5069897;28;20037;-56
2022/11/20 04:37:24;;;;;;;2.00;1.65;;;;;;;;;;5070025;28;20541;-56
2022/11/20 04:39:50;;;;;;;2.25;1.50;;;;;;;;;;5068967;28;20079;-56
2022/11/20 04:42:28;;;;;;;2.28;1.52;;;;;;;;;;5049640;28;20087;-55
2022/11/20 04:44:54;;;;;;;1.67;1.33;;;;;;;;;;5069845;28;20123;-55
2022/11/20 04:47:20;;;;;;;2.00;1.52;;;;;;;;;;5075513;28;20038;-55
2022/11/20 04:49:46;;;;;;;1.50;1.40;;;;;;;;;;5090161;28;20510;-55
2022/11/20 04:52:12;;;;;;;2.17;1.60;;;;;;;;;;5090915;28;20081;-55
2022/11/20 04:54:38;;;;;;;1.83;1.50;;;;;;;;;;5090913;28;20384;-56
2022/11/20 04:57:04;;;;;;;2.38;1.55;;;;;;;;;;5090739;28;20039;-56
2022/11/20 04:59:30;;;;;;;2.15;1.42;;;;;;;;;;5090977;28;20433;-55
2022/11/20 05:01:56;;;;;;;1.92;1.50;;;;;;;;;;5090926;28;20113;-56
2022/11/20 05:04:22;;;;;;;1.92;1.15;;;;;;;;;;5090628;28;20478;-56
2022/11/20 05:06:48;;;;;;;1.77;1.20;;;;;;;;;;5090766;28;20519;-55
2022/11/20 05:09:14;;;;;;;7.13;2.40;;;;;;;;;;5090829;28;20125;-56
2022/11/20 05:11:40;;;;;;;1.98;1.25;;;;;;;;;;5090656;28;20109;-56
2022/11/20 05:14:06;;;;;;;1.67;1.33;;;;;;;;;;5090551;28;20032;-56
2022/11/20 05:16:34;;;;;;;2.00;1.55;;;;;;;;;;5090604;28;20118;-55
2022/11/20 05:19:00;;;;;;;1.88;1.30;;;;;;;;;;5090764;28;20104;-55
2022/11/20 05:21:27;;;;;;;3.35;1.52;;;;;;;;;;5090671;28;20110;-55
2022/11/20 05:23:53;;;;;;;1.58;1.25;;;;;;;;;;5090396;28;20056;-55
2022/11/20 05:26:21;;;;;;;1.38;1.20;;;;;;;;;;5090482;28;20503;-55
2022/11/20 05:28:47;;;;;;;2.28;1.60;;;;;;;;;;5090399;28;20024;-55
2022/11/20 05:31:14;;;;;;;1.80;1.50;;;;;;;;;;5090397;28;20493;-55
2022/11/20 05:33:40;;;;;;;1.73;1.50;;;;;;;;;;5090265;28;20032;-55
2022/11/20 05:36:07;;;;;;;1.85;1.20;;;;;;;;;;5090578;28;20112;-55
2022/11/20 05:38:33;;;;;;;1.70;1.30;;;;;;;;;;5090649;28;20029;-56
2022/11/20 05:41:05;;;;;;;3.28;1.80;;;;;;;;;;5090612;28;20039;-55
2022/11/20 05:43:33;;;;;;;1.85;1.58;;;;;;;;;;5090579;28;20039;-56
2022/11/20 05:45:59;;;;;;;2.10;1.70;;;;;;;;;;5090173;28;20093;-56
2022/11/20 05:48:25;;;;;;;1.50;1.40;;;;;;;;;;5090257;28;20036;-55
2022/11/20 05:50:51;;;;;;;4.95;1.23;;;;;;;;;;5090192;28;20036;-56
2022/11/20 05:53:17;;;;;;;2.97;1.50;;;;;;;;;;5090318;28;20035;-55
2022/11/20 05:55:43;;;;;;;1.08;0.98;;;;;;;;;;5090169;28;20033;-55
2022/11/20 05:58:09;;;;;;;1.52;1.10;;;;;;;;;;5090239;28;20025;-55
2022/11/20 06:00:35;;;;;;;2.30;1.48;;;;;;;;;;5090064;28;20032;-56
2022/11/20 06:03:01;;;;;;;1.60;1.17;;;;;;;;;;5090407;28;20036;-56
2022/11/20 06:05:27;;;;;;;1.27;1.15;;;;;;;;;;5090223;28;20036;-55
2022/11/20 06:07:53;;;;;;;1.17;0.90;;;;;;;;;;5090089;28;20040;-55
2022/11/20 06:10:19;;;;;;;1.15;1.05;;;;;;;;;;5090095;28;20032;-55
2022/11/20 06:12:45;;;;;;;1.60;1.10;;;;;;;;;;5089952;28;20537;-56
2022/11/20 06:15:11;;;;;;;1.88;1.30;;;;;;;;;;5089857;28;20036;-55
2022/11/20 06:17:37;;;;;;;1.83;1.30;;;;;;;;;;5090135;28;20024;-55
2022/11/20 06:20:03;;;;;;;1.73;1.20;;;;;;;;;;5090224;28;20146;-55
2022/11/20 06:22:29;;;;;;;2.38;1.30;;;;;;;;;;5089815;28;20031;-55
2022/11/20 06:24:55;;;;;;;2.33;1.33;;;;;;;;;;5089932;28;20039;-56
2022/11/20 06:27:21;;;;;;;1.55;1.00;;;;;;;;;;5089967;28;20126;-55
2022/11/20 06:29:47;;;;;;;2.75;1.20;;;;;;;;;;5089737;28;20514;-55
2022/11/20 06:32:13;;;;;;;2.60;1.33;;;;;;;;;;5089833;28;20036;-55
2022/11/20 06:34:39;;;;;;;2.63;1.27;;;;;;;;;;5089706;28;20040;-55
2022/11/20 06:37:05;;;;;;;1.98;1.05;;;;;;;;;;5061210;28;20498;-55
2022/11/20 06:39:31;;;;;;;1.83;1.38;;;;;;;;;;5071739;28;20044;-55
2022/11/20 06:41:57;;;;;;;1.42;1.27;;;;;;;;;;5060166;28;20029;-54
2022/11/20 06:44:23;;;;;;;1.25;0.95;;;;;;;;;;5051142;28;20576;-54
2022/11/20 06:46:49;;;;;;;1.70;1.30;;;;;;;;;;5051429;28;20033;-53
2022/11/20 06:49:15;;;;;;;1.50;1.15;;;;;;;;;;5051274;28;20041;-53
2022/11/20 06:51:41;;;;;;;1.98;1.45;;;;;;;;;;5051962;28;20136;-54
2022/11/20 06:54:07;;;;;;;1.20;1.05;;;;;;;;;;5051068;28;20037;-54
2022/11/20 06:56:33;;;;;;;2.22;1.10;;;;;;;;;;5051031;28;20566;-54
2022/11/20 06:58:59;;;;;;;1.52;1.20;;;;;;;;;;5051015;28;20037;-54
2022/11/20 07:01:25;;;;;;;1.83;1.20;;;;;;;;;;5051049;28;20566;-55
2022/11/20 07:03:51;;;;;;;1.20;1.10;;;;;;;;;;5050982;28;20037;-55
2022/11/20 07:06:17;;;;;;;2.15;1.08;;;;;;;;;;5050944;28;20040;-55
2022/11/20 07:08:42;;;;;;;2.40;1.00;;;;;;;;;;5051524;28;20033;-53
2022/11/20 07:11:09;;;;;;;2.03;1.10;;;;;;;;;;5050856;28;20067;-55
2022/11/20 07:13:35;;;;;;;1.42;0.98;;;;;;;;;;5050719;28;20072;-55
2022/11/20 07:16:01;;;;;;;2.38;1.30;;;;;;;;;;5050690;28;20033;-54
2022/11/20 07:18:28;;;;;;;1.20;0.90;;;;;;;;;;5050741;28;20064;-54
2022/11/20 07:20:53;;;;;;;1.60;1.17;;;;;;;;;;5050701;28;20036;-53
2022/11/20 07:23:19;;;;;;;1.33;1.08;;;;;;;;;;5050656;28;20029;-54
2022/11/20 07:25:45;;;;;;;2.35;1.20;;;;;;;;;;5050825;28;20033;-55
2022/11/20 07:28:11;;;;;;;2.58;1.30;;;;;;;;;;5049743;28;20040;-54
2022/11/20 07:30:37;;;;;;;1.80;1.30;;;;;;;;;;5050401;28;20037;-55
2022/11/20 07:33:03;;;;;;;2.05;1.30;;;;;;;;;;5050450;28;20071;-55
2022/11/20 07:35:29;;;;;;;1.65;1.10;;;;;;;;;;5050320;28;20064;-54
2022/11/20 07:37:55;;;;;;;1.27;1.10;;;;;;;;;;5050318;28;20107;-55
2022/11/20 07:40:21;;;;;;;3.08;1.25;;;;;;;;;;5050312;28;20155;-54
2022/11/20 07:42:51;;;;;;;1.88;1.30;;;;;;;;;;5050167;28;20033;-55
2022/11/20 07:45:18;;;;;;;1.83;1.17;;;;;;;;;;5050104;28;20040;-54
2022/11/20 07:47:44;;;;;;;1.48;1.38;;;;;;;;;;5049790;28;20457;-54
2022/11/20 07:50:10;;;;;;;1.92;1.33;;;;;;;;;;5050175;28;20040;-54
2022/11/20 07:52:36;;;;;;;1.98;1.50;;;;;;;;;;5050136;28;20044;-54
2022/11/20 07:55:02;;;;;;;1.45;1.08;;;;;;;;;;5049876;28;20029;-55
2022/11/20 07:57:28;;;;;;;1.77;1.00;;;;;;;;;;5050036;28;20040;-53
2022/11/20 07:59:54;;;;;;;2.67;1.63;;;;;;;;;;5049985;28;20036;-53
2022/11/20 08:02:20;;;;;;;1.85;1.50;;;;;;;;;;5049860;28;20091;-52
2022/11/20 08:04:46;;;;;;;1.73;1.50;;;;;;;;;;5050404;28;20102;-54
2022/11/20 08:07:12;;;;;;;1.80;1.23;;;;;;;;;;5050159;28;20466;-54
2022/11/20 08:09:38;;;;;;;0.98;0.90;;;;;;;;;;5068265;28;20037;-55
2022/11/20 08:14:49;;;;;;;1.75;1.13;;;;;;;;;;5090456;28;20100;-55
2022/11/20 08:17:15;;;;;;;1.77;1.15;;;;;;;;;;5075159;28;20028;-54
2022/11/20 08:19:41;;;;;;;1.90;1.05;;;;;;;;;;5070085;28;20040;-54
2022/11/20 08:22:07;;;;;;;2.15;1.38;;;;;;;;;;5070108;28;20037;-54
2022/11/20 08:24:33;;;;;;;1.77;1.30;;;;;;;;;;5070325;28;20060;-54
2022/11/20 08:27:00;;;;;;;2.85;1.75;;;;;;;;;;5070137;28;20074;-53
2022/11/20 08:29:29;;;;;;;5.28;3.28;;;;;;;;;;5086494;28;20400;-54
2022/11/20 08:31:55;;;;;;;5.28;3.00;;;;;;;;;;5090297;28;20436;-55
2022/11/20 08:34:21;;;;;;;4.10;2.60;;;;;;;;;;5090219;28;20157;-55
2022/11/20 08:36:47;;;;;;;4.28;2.53;;;;;;;;;;5063658;28;20031;-55
2022/11/20 08:39:13;;;;;;;3.28;2.22;;;;;;;;;;5070996;28;20037;-55
2022/11/20 08:41:39;;;;;;;2.95;1.98;;;;;;;;;;5069440;28;20033;-55
2022/11/20 08:44:07;;;;;;;2.58;1.90;;;;;;;;;;5069759;28;20067;-54
2022/11/20 08:46:36;;;;;;;2.72;1.83;;;;;;;;;;5070203;28;20284;-55
2022/11/20 08:49:02;;;;;;;2.45;1.73;;;;;;;;;;5070711;28;20546;-54
2022/11/20 08:51:28;;;;;;;1.92;1.38;;;;;;;;;;5049704;28;20068;-53
2022/11/20 08:53:54;;;;;;;2.30;1.42;;;;;;;;;;5064740;28;20129;-54
2022/11/20 08:56:20;;;;;;;2.08;1.40;;;;;;;;;;5089970;28;20127;-54
2022/11/20 08:58:46;;;;;;;1.90;1.30;;;;;;;;;;5084323;28;20036;-54
2022/11/20 09:01:12;;;;;;;1.67;1.23;;;;;;;;;;5070281;28;20024;-55
2022/11/20 09:03:38;;;;;;;1.17;0.90;;;;;;;;;;5069734;28;20037;-55
2022/11/20 09:06:05;;;;;;;2.08;1.13;;;;;;;;;;5069357;28;20040;-55
2022/11/20 09:08:32;;;;;;;1.98;1.23;;;;;;;;;;5074231;28;20036;-54
2022/11/20 09:10:58;;;;;;;2.58;1.30;;;;;;;;;;5089868;28;20024;-55
2022/11/20 09:13:26;;;;;;;1.80;1.02;;;;;;;;;;5089202;28;20043;-55
2022/11/20 09:15:58;;;;;;;2.15;1.17;;;;;;;;;;5089776;28;20392;-54
2022/11/20 09:18:25;;;;;;;2.78;1.00;;;;;;;;;;5089621;28;20028;-55
2022/11/20 09:20:51;;;;;;;2.38;1.17;;;;;;;;;;5080624;28;20412;-54
2022/11/20 09:23:17;;;;;;;3.13;1.25;;;;;;;;;;5066718;28;20140;-55
2022/11/20 09:38:07;;;;;;;3.13;1.80;;;;;;;;;;5071151;28;20023;-53
2022/11/20 09:40:35;;;;;;;5.10;2.53;;;;;;;;;;5066717;28;20076;-55
2022/11/20 09:43:01;;;;;;;3.80;2.13;;;;;;;;;;5062403;28;20111;-55
2022/11/20 09:45:33;;;;;;;4.15;2.00;;;;;;;;;;5065576;28;20285;-55
2022/11/20 09:47:59;;;;;;;3.50;2.10;;;;;;;;;;5068031;28;20028;-55
2022/11/20 09:50:28;;;;;;;4.60;1.55;;;;;;;;;;5068402;28;20040;-53
2022/11/20 09:53:00;;;;;;;3.22;1.50;;;;;;;;;;5064688;28;20032;-54
2022/11/20 09:55:28;;;;;;;3.17;1.65;;;;;;;;;;5067198;28;20571;-54
2022/11/20 09:57:54;;;;;;;4.75;1.63;;;;;;;;;;5068420;28;20082;-54
2022/11/20 10:00:21;;;;;;;3.03;1.38;;;;;;;;;;5068643;28;20037;-54
2022/11/20 10:02:47;;;;;;;2.08;1.60;;;;;;;;;;5068447;28;20033;-55
2022/11/20 10:05:18;;;;;;;4.45;1.38;;;;;;;;;;5068326;28;20135;-55
2022/11/20 10:07:47;;;;;;;3.67;2.20;;;;;;;;;;5068265;28;20033;-55
2022/11/20 10:10:17;;;;;;;3.33;1.70;;;;;;;;;;5068352;28;20040;-55
2022/11/20 10:12:55;;;;;;;4.75;2.50;;;;;;;;;;5072072;28;20044;-51
2022/11/20 10:15:30;;;;;;;3.33;2.13;;;;;;;;;;5072588;28;20032;-55
2022/11/20 10:18:06;;;;;;;5.60;2.72;;;;;;;;;;5072015;28;20396;-55
2022/11/20 10:20:38;;;;;;;6.57;2.88;;;;;;;;;;5072038;28;20411;-55
2022/11/20 10:23:23;;;;;;;6.68;3.22;;;;;;;;;;5072128;28;20479;-55
2022/11/20 10:25:51;;;;;;;6.40;2.65;;;;;;;;;;5071937;28;20047;-54
2022/11/20 10:28:26;;;;;;;6.75;2.22;;;;;;;;;;5072231;28;20029;-54
2022/11/20 10:30:51;;;;;;;;;;;;;;;;;;5072557;28;20036;-55
2022/11/20 10:33:20;;;;;;;6.10;2.83;;;;;;;;;;5071663;28;19911;-54
2022/11/20 10:35:55;;;;;;;7.90;3.53;;;;;;;;;;5071599;28;20086;-55
2022/11/20 10:38:34;;;;;;;4.70;2.72;;;;;;;;;;5052103;28;20378;-54
2022/11/20 10:43:47;;;;;;;5.22;2.58;;;;;;;;;;5071616;28;20514;-54
2022/11/20 10:46:16;;;;;;;4.25;2.10;;;;;;;;;;5071220;28;20040;-54
2022/11/20 10:48:43;;;;;;;2.50;1.70;;;;;;;;;;5071612;28;20496;-56
2022/11/20 10:51:13;;;;;;;2.75;1.75;;;;;;;;;;5071593;28;20413;-55
2022/11/20 10:53:42;;;;;;;1.70;1.20;;;;;;;;;;5069630;28;20079;-55
2022/11/20 10:56:17;;;;;;;1.45;1.05;;;;;;;;;;5070902;28;20094;-55
2022/11/20 10:58:53;;;;;;;2.08;1.52;;;;;;;;;;5071429;28;20607;-56
2022/11/20 11:01:23;;;;;;;3.35;1.33;;;;;;;;;;5060791;28;20035;-55
2022/11/20 11:03:51;;;;;;;2.70;1.38;;;;;;;;;;5057757;28;20296;-55
2022/11/20 11:06:24;;;;;;;2.80;1.30;;;;;;;;;;5051194;28;20036;-56
2022/11/20 11:08:52;;;;;;;2.67;1.35;;;;;;;;;;5051399;28;20044;-56
2022/11/20 11:11:26;;;;;;;1.40;1.00;;;;;;;;;;5051054;28;20033;-56
2022/11/20 11:13:52;;;;;;;2.33;1.27;;;;;;;;;;5051185;28;20067;-56
2022/11/20 11:16:27;;;;;;;1.38;1.08;;;;;;;;;;5050932;28;20025;-55
2022/11/20 11:19:04;;;;;;;1.98;0.95;;;;;;;;;;5066460;28;20060;-56
2022/11/20 11:21:30;;;;;;;2.42;0.88;;;;;;;;;;5061065;28;20029;-56
2022/11/20 11:24:03;;;;;;;1.52;1.08;;;;;;;;;;5062906;28;20033;-55
2022/11/20 11:26:30;;;;;;;1.58;1.00;;;;;;;;;;5083563;28;20032;-56
2022/11/20 11:28:58;;;;;;;2.22;0.90;;;;;;;;;;5091034;28;20055;-43
2022/11/20 11:31:30;;;;;;;1.50;1.00;;;;;;;;;;5065170;28;20021;-42
2022/11/20 11:34:06;;;;;;;1.35;0.82;;;;;;;;;;5070663;28;20107;-42
2022/11/20 11:36:33;;;;;;;1.80;0.80;;;;;;;;;;5070584;28;20029;-43
2022/11/20 11:38:59;;;;;;;1.05;0.95;;;;;;;;;;5070699;28;20107;-42
2022/11/20 11:41:28;;;;;;;1.10;0.82;;;;;;;;;;5084357;28;20032;-42
2022/11/20 11:46:41;;;;;;;1.00;0.57;;;;;;;;;;5068796;28;20052;-57
2022/11/20 11:49:15;;;;;;;1.13;0.80;;;;;;;;;;5070310;28;20029;-57
2022/11/20 11:52:03;;;;;;;0.98;0.80;;;;;;;;;;5068464;28;20024;-57
2022/11/20 11:54:35;;;;;;;1.58;0.90;;;;;;;;;;5059221;28;20036;-57
2022/11/20 11:57:04;;;;;;;2.83;1.10;;;;;;;;;;5075064;28;20033;-59
2022/11/20 11:59:40;;;;;;;3.28;1.30;;;;;;;;;;5091237;28;20036;-58
2022/11/20 12:02:15;;;;;;;2.70;1.35;;;;;;;;;;5085353;28;20036;-58
2022/11/20 12:04:46;;;;;;;3.08;1.55;;;;;;;;;;5075041;28;20512;-55
2022/11/20 12:07:30;;;;;;;3.53;1.63;;;;;;;;;;5078757;28;20384;-54
2022/11/20 12:09:58;;;;;;;2.42;1.30;;;;;;;;;;5076614;28;20558;-53
2022/11/20 12:12:28;;;;;;;1.20;0.90;;;;;;;;;;5081016;28;20036;-52
2022/11/20 12:14:55;;;;;;;2.08;1.33;;;;;;;;;;5054990;28;20132;-53
2022/11/20 12:17:21;;;;;;;1.00;0.80;;;;;;;;;;5080998;28;20032;-53
2022/11/20 12:19:47;;;;;;;1.33;1.00;;;;;;;;;;5077872;28;20031;-52
2022/11/20 12:22:32;;;;;;;0.70;0.60;;;;;;;;;;5054598;28;20056;-53
2022/11/20 12:24:58;;;;;;;1.35;0.82;;;;;;;;;;5072150;28;20054;-53
2022/11/20 12:27:32;;;;;;;0.50;0.50;;;;;;;;;;5081761;28;20527;-42
2022/11/20 12:30:09;;;;;;;0.60;0.52;;;;;;;;;;5085416;28;20047;-44
2022/11/20 12:32:53;;;;;;;1.02;0.73;;;;;;;;;;5085713;28;20325;-45
2022/11/20 12:35:38;;;;;;;1.02;0.80;;;;;;;;;;5074897;28;20156;-57
2022/11/20 12:38:23;;;;;;;2.28;1.20;;;;;;;;;;5064793;28;20111;-58
2022/11/20 12:40:55;;;;;;;1.98;0.82;;;;;;;;;;5079914;28;20098;-40
2022/11/20 12:46:25;;;;;;;0.82;0.70;;;;;;;;;;5058684;28;20051;-59
2022/11/20 12:48:51;;;;;;;1.10;0.70;;;;;;;;;;5071847;28;20059;-42
2022/11/20 12:51:30;;;;;;;0.70;0.60;;;;;;;;;;5071246;28;20036;-57
2022/11/20 12:54:03;;;;;;;1.98;1.42;;;;;;;;;;5073403;28;20071;-58
2022/11/20 12:56:59;;;;;;;1.00;0.83;;;;;;;;;;5053924;28;20112;-58
2022/11/20 12:59:34;;;;;;;1.40;0.90;;;;;;;;;;5048061;28;20028;-58
2022/11/20 13:02:15;;;;;;;1.15;0.63;;;;;;;;;;5081353;28;20029;-58
2022/11/20 13:05:01;;;;;;;0.70;0.70;;;;;;;;;;5038532;28;20048;-58
2022/11/20 13:07:28;;;;;;;1.38;0.73;;;;;;;;;;5009204;28;20044;-58
2022/11/20 13:09:55;;;;;;;1.00;0.90;;;;;;;;;;5068175;28;20041;-58
2022/11/20 13:12:45;;;;;;;1.77;0.82;;;;;;;;;;5068619;28;20522;-59
2022/11/20 13:15:32;;;;;;;1.25;0.70;;;;;;;;;;5076123;28;20043;-58
2022/11/20 13:18:00;;;;;;;1.33;0.70;;;;;;;;;;5078187;28;20073;-42
2022/11/20 13:20:27;;;;;;;0.88;0.70;;;;;;;;;;5070713;28;20036;-42
2022/11/20 13:22:57;;;;;;;0.68;0.60;;;;;;;;;;5082551;28;20040;-42
2022/11/20 13:25:31;;;;;;;1.83;0.90;;;;;;;;;;5072275;28;20097;-42
2022/11/20 13:27:58;;;;;;;1.10;0.95;;;;;;;;;;5079722;28;20036;-42
2022/11/20 13:30:25;;;;;;;2.72;1.45;;;;;;;;;;5077806;28;20507;-42
2022/11/20 13:33:12;;;;;;;2.42;1.52;;;;;;;;;;5059176;28;20449;-42
2022/11/20 13:35:41;;;;;;;2.13;1.30;;;;;;;;;;5060345;28;20469;-42
2022/11/20 13:38:08;;;;;;;1.80;1.27;;;;;;;;;;5073437;28;20036;-42
2022/11/20 13:40:36;;;;;;;1.63;0.88;;;;;;;;;;5076189;28;20115;-41
2022/11/20 13:43:08;;;;;;;0.90;0.80;;;;;;;;;;5075936;28;20032;-42
2022/11/20 13:45:34;;;;;;;1.10;0.80;;;;;;;;;;5077294;28;20089;-42
2022/11/20 13:48:05;;;;;;;1.30;0.95;;;;;;;;;;5076953;28;20099;-42
2022/11/20 13:50:37;;;;;;;1.85;0.90;;;;;;;;;;5073162;28;20045;-42
2022/11/20 13:53:30;;;;;;;1.02;0.73;;;;;;;;;;5057732;28;20039;-42
2022/11/20 13:56:07;;;;;;;1.45;0.80;;;;;;;;;;5088288;28;20430;-42
2022/11/20 13:58:48;;;;;;;1.10;0.60;;;;;;;;;;5093129;28;20089;-42
2022/11/20 14:01:20;;;;;;;1.13;0.85;;;;;;;;;;5078532;28;20574;-42
2022/11/20 14:03:47;;;;;;;1.25;0.70;;;;;;;;;;5053893;28;20414;-42
2022/11/20 14:06:18;;;;;;;0.65;0.60;;;;;;;;;;5071102;28;20041;-42
2022/11/20 14:08:48;;;;;;;0.52;0.40;;;;;;;;;;5072160;28;20107;-42
2022/11/20 14:11:24;;;;;;;0.50;0.50;;;;;;;;;;5071949;28;20044;-42
2022/11/20 14:13:57;;;;;;;0.60;0.60;;;;;;;;;;5090269;28;20028;-42
2022/11/20 14:16:24;;;;;;;0.85;0.77;;;;;;;;;;5072976;28;20131;-42
2022/11/20 14:18:50;;;;;;;0.75;0.50;;;;;;;;;;5073033;28;20025;-42
2022/11/20 14:21:29;;;;;;;0.88;0.70;;;;;;;;;;5077683;28;20032;-42
2022/11/20 14:24:10;;;;;;;0.47;0.47;;;;;;;;;;5076142;28;20044;-42
2022/11/20 14:26:37;;;;;;;0.70;0.63;;;;;;;;;;5053763;28;20075;-41
2022/11/20 14:29:03;;;;;;;1.33;0.75;;;;;;;;;;5081524;28;20044;-42
2022/11/20 14:31:30;;;;;;;0.50;0.50;;;;;;;;;;5089338;28;20032;-42
2022/11/20 14:33:56;;;;;;;0.50;0.47;;;;;;;;;;5075083;28;20043;-42
2022/11/20 14:36:23;;;;;;;0.93;0.45;;;;;;;;;;5076129;28;20035;-42
2022/11/20 14:38:50;;;;;;;2.45;0.80;;;;;;;;;;5058260;28;20106;-42
2022/11/20 14:41:20;;;;;;;1.25;0.80;;;;;;;;;;5077244;28;20036;-42
2022/11/20 14:43:48;;;;;;;1.65;0.75;;;;;;;;;;5053399;28;20044;-42
2022/11/20 14:46:15;;;;;;;0.75;0.68;;;;;;;;;;5081779;28;20059;-42
2022/11/20 14:48:48;;;;;;;1.55;0.88;;;;;;;;;;5086582;28;20039;-40
2022/11/20 14:51:26;;;;;;;0.50;0.50;;;;;;;;;;5068099;28;20157;-40
2022/11/20 14:53:52;;;;;;;0.82;0.68;;;;;;;;;;5082873;28;20041;-40
2022/11/20 14:56:23;;;;;;;1.50;0.60;;;;;;;;;;5079534;28;20039;-40
2022/11/20 14:58:56;;;;;;;0.75;0.52;;;;;;;;;;5056373;28;20080;-40
2022/11/20 15:01:27;;;;;;;1.10;1.00;;;;;;;;;;5074051;28;20032;-40
2022/11/20 15:04:00;;;;;;;0.65;0.65;;;;;;;;;;5075709;28;20032;-40
2022/11/20 15:06:26;;;;;;;0.60;0.60;;;;;;;;;;5079193;28;20538;-40
2022/11/20 15:08:53;;;;;;;1.58;1.08;;;;;;;;;;5052607;28;20060;-40
2022/11/20 15:11:21;;;;;;;0.93;0.70;;;;;;;;;;5076318;28;20039;-40
2022/11/20 15:13:47;;;;;;;0.90;0.60;;;;;;;;;;5074846;28;20511;-40
2022/11/20 15:16:23;;;;;;;1.33;0.63;;;;;;;;;;5074943;28;20174;-40
2022/11/20 15:18:49;;;;;;;1.23;0.80;;;;;;;;;;5075419;28;20035;-40
2022/11/20 15:21:17;;;;;;;0.50;0.50;;;;;;;;;;5081184;28;20233;-40
2022/11/20 15:23:43;;;;;;;1.45;0.80;;;;;;;;;;5085012;28;20048;-40